sensor_id;sensor_type;location;lat;lon;timestamp;pressure;altitude;pressure_sealevel;temperature;humidity
64503;BME280;50971;51.940;21.258;2022-10-31T00:06:39;100965.21;;;7.02;100.00
64503;BME280;50971;51.940;21.258;2022-10-31T00:16:41;100969.73;;;7.12;100.00
64503;BME280;50971;51.940;21.258;2022-10-31T00:26:43;100969.77;;;7.09;100.00
64503;BME280;50971;51.940;21.258;2022-10-31T00:36:45;100966.02;;;7.00;100.00
64503;BME280;50971;51.940;21.258;2022-10-31T00:46:47;100962.88;;;7.03;100.00
64503;BME280;50971;51.940;21.258;2022-10-31T00:56:49;100965.38;;;7.14;100.00
64503;BME280;50971;51.940;21.258;2022-10-31T01:06:51;100973.43;;;7.14;100.00
64503;BME280;50971;51.940;21.258;2022-10-31T01:16:53;100974.91;;;7.07;100.00
64503;BME280;50971;51.940;21.258;2022-10-31T01:26:56;100978.36;;;7.11;100.00
64503;BME280;50971;51.940;21.258;2022-10-31T01:36:58;100981.27;;;7.15;100.00
64503;BME280;50971;51.940;21.258;2022-10-31T01:47:17;100985.95;;;7.02;100.00
64503;BME280;50971;51.940;21.258;2022-10-31T01:57:22;100990.42;;;6.94;100.00
64503;BME280;50971;51.940;21.258;2022-10-31T02:07:30;100997.09;;;7.08;100.00
64503;BME280;50971;51.940;21.258;2022-10-31T02:17:34;100997.03;;;7.22;100.00
64503;BME280;50971;51.940;21.258;2022-10-31T02:38:53;101002.08;;;7.17;100.00
64503;BME280;50971;51.940;21.258;2022-10-31T02:49:32;101002.77;;;6.90;100.00
64503;BME280;50971;51.940;21.258;2022-10-31T02:59:37;100996.41;;;6.85;100.00
64503;BME280;50971;51.940;21.258;2022-10-31T03:09:53;101000.64;;;6.90;100.00
64503;BME280;50971;51.940;21.258;2022-10-31T03:19:59;101001.25;;;6.83;100.00
64503;BME280;50971;51.940;21.258;2022-10-31T03:30:04;101013.30;;;6.70;100.00
64503;BME280;50971;51.940;21.258;2022-10-31T03:40:14;101013.64;;;6.72;100.00
64503;BME280;50971;51.940;21.258;2022-10-31T03:50:18;101020.29;;;6.81;100.00
64503;BME280;50971;51.940;21.258;2022-10-31T04:00:21;101037.10;;;6.82;100.00
64503;BME280;50971;51.940;21.258;2022-10-31T04:10:26;101040.27;;;6.60;100.00
64503;BME280;50971;51.940;21.258;2022-10-31T04:20:39;101046.08;;;6.43;100.00
64503;BME280;50971;51.940;21.258;2022-10-31T04:30:42;101043.99;;;6.49;100.00
64503;BME280;50971;51.940;21.258;2022-10-31T04:40:45;101039.91;;;6.64;100.00
64503;BME280;50971;51.940;21.258;2022-10-31T04:51:25;101045.60;;;6.83;100.00
64503;BME280;50971;51.940;21.258;2022-10-31T05:01:27;101053.21;;;6.84;100.00
64503;BME280;50971;51.940;21.258;2022-10-31T05:11:30;101052.65;;;6.71;100.00
64503;BME280;50971;51.940;21.258;2022-10-31T05:21:47;101061.77;;;6.77;100.00
64503;BME280;50971;51.940;21.258;2022-10-31T05:31:49;101076.94;;;6.92;100.00
64503;BME280;50971;51.940;21.258;2022-10-31T05:42:14;101083.74;;;7.07;100.00
64503;BME280;50971;51.940;21.258;2022-10-31T05:52:16;101081.48;;;7.21;100.00
64503;BME280;50971;51.940;21.258;2022-10-31T06:02:24;101087.16;;;7.18;100.00
64503;BME280;50971;51.940;21.258;2022-10-31T06:12:51;101098.77;;;7.39;100.00
64503;BME280;50971;51.940;21.258;2022-10-31T06:23:04;101102.48;;;7.48;100.00
64503;BME280;50971;51.940;21.258;2022-10-31T06:33:07;101097.73;;;7.47;100.00
64503;BME280;50971;51.940;21.258;2022-10-31T06:43:12;101101.27;;;7.72;100.00
64503;BME280;50971;51.940;21.258;2022-10-31T06:53:16;101108.02;;;8.31;100.00
64503;BME280;50971;51.940;21.258;2022-10-31T07:03:18;101103.27;;;8.62;100.00
64503;BME280;50971;51.940;21.258;2022-10-31T07:13:23;101104.89;;;8.88;100.00
64503;BME280;50971;51.940;21.258;2022-10-31T07:23:36;101112.65;;;9.21;100.00
64503;BME280;50971;51.940;21.258;2022-10-31T07:34:12;101122.11;;;9.72;100.00
64503;BME280;50971;51.940;21.258;2022-10-31T07:45:11;101127.07;;;9.92;100.00
64503;BME280;50971;51.940;21.258;2022-10-31T07:56:15;101129.84;;;10.27;100.00
64503;BME280;50971;51.940;21.258;2022-10-31T08:06:34;101134.05;;;10.82;100.00
64503;BME280;50971;51.940;21.258;2022-10-31T08:16:55;101127.59;;;11.13;100.00
64503;BME280;50971;51.940;21.258;2022-10-31T08:27:28;101131.63;;;11.83;100.00
64503;BME280;50971;51.940;21.258;2022-10-31T08:37:53;101134.48;;;12.45;100.00
64503;BME280;50971;51.940;21.258;2022-10-31T08:48:17;101144.27;;;12.89;100.00
64503;BME280;50971;51.940;21.258;2022-10-31T08:58:45;101146.27;;;13.62;100.00
64503;BME280;50971;51.940;21.258;2022-10-31T09:09:23;101157.39;;;14.35;100.00
64503;BME280;50971;51.940;21.258;2022-10-31T09:19:46;101158.66;;;14.94;100.00
64503;BME280;50971;51.940;21.258;2022-10-31T09:30:04;101164.58;;;15.02;100.00
64503;BME280;50971;51.940;21.258;2022-10-31T09:40:08;101157.69;;;14.98;100.00
64503;BME280;50971;51.940;21.258;2022-10-31T09:50:20;101158.42;;;15.17;100.00
64503;BME280;50971;51.940;21.258;2022-10-31T10:00:25;101163.84;;;15.12;100.00
64503;BME280;50971;51.940;21.258;2022-10-31T10:10:51;101167.50;;;15.28;100.00
64503;BME280;50971;51.940;21.258;2022-10-31T10:31:38;101159.89;;;15.61;100.00
64503;BME280;50971;51.940;21.258;2022-10-31T10:41:50;101144.80;;;15.88;100.00
64503;BME280;50971;51.940;21.258;2022-10-31T11:02:43;101134.48;;;15.95;100.00
64503;BME280;50971;51.940;21.258;2022-10-31T11:23:22;101137.33;;;14.67;100.00
64503;BME280;50971;51.940;21.258;2022-10-31T11:33:38;101129.19;;;14.38;100.00
64503;BME280;50971;51.940;21.258;2022-10-31T11:43:48;101124.70;;;14.12;100.00
64503;BME280;50971;51.940;21.258;2022-10-31T11:53:54;101114.22;;;13.88;100.00
64503;BME280;50971;51.940;21.258;2022-10-31T12:04:09;101105.91;;;13.88;100.00
64503;BME280;50971;51.940;21.258;2022-10-31T12:14:27;101116.54;;;13.98;100.00
64503;BME280;50971;51.940;21.258;2022-10-31T12:45:57;101109.59;;;14.01;100.00
64503;BME280;50971;51.940;21.258;2022-10-31T13:06:18;101104.35;;;14.04;100.00
64503;BME280;50971;51.940;21.258;2022-10-31T13:16:25;101099.25;;;13.83;100.00
64503;BME280;50971;51.940;21.258;2022-10-31T13:26:38;101098.21;;;13.75;100.00
64503;BME280;50971;51.940;21.258;2022-10-31T13:36:58;101093.98;;;13.71;100.00
64503;BME280;50971;51.940;21.258;2022-10-31T13:47:19;101095.33;;;13.52;100.00
64503;BME280;50971;51.940;21.258;2022-10-31T14:08:15;101102.30;;;13.08;100.00
64503;BME280;50971;51.940;21.258;2022-10-31T14:18:41;101100.30;;;12.97;100.00
64503;BME280;50971;51.940;21.258;2022-10-31T15:00:12;101091.36;;;11.81;100.00
64503;BME280;50971;51.940;21.258;2022-10-31T15:10:36;101089.70;;;11.63;100.00
64503;BME280;50971;51.940;21.258;2022-10-31T16:18:52;101106.42;;;12.27;100.00
64503;BME280;50971;51.940;21.258;2022-10-31T16:29:32;101110.30;;;12.39;100.00
64503;BME280;50971;51.940;21.258;2022-10-31T16:39:34;101115.21;;;12.49;100.00
64503;BME280;50971;51.940;21.258;2022-10-31T16:49:35;101116.60;;;12.54;100.00
64503;BME280;50971;51.940;21.258;2022-10-31T16:59:42;101118.68;;;12.62;100.00
64503;BME280;50971;51.940;21.258;2022-10-31T17:10:03;101120.13;;;12.67;100.00
64503;BME280;50971;51.940;21.258;2022-10-31T17:20:26;101117.42;;;12.75;100.00
64503;BME280;50971;51.940;21.258;2022-10-31T17:30:28;101115.50;;;12.82;100.00
64503;BME280;50971;51.940;21.258;2022-10-31T17:40:35;101111.91;;;12.86;100.00
64503;BME280;50971;51.940;21.258;2022-10-31T17:50:53;101119.27;;;12.89;100.00
64503;BME280;50971;51.940;21.258;2022-10-31T18:00:55;101121.69;;;12.96;100.00
64503;BME280;50971;51.940;21.258;2022-10-31T18:10:57;101126.98;;;12.91;100.00
64503;BME280;50971;51.940;21.258;2022-10-31T18:21:02;101138.61;;;12.93;100.00
64503;BME280;50971;51.940;21.258;2022-10-31T18:31:04;101136.67;;;12.89;100.00
64503;BME280;50971;51.940;21.258;2022-10-31T18:41:06;101128.10;;;12.77;100.00
64503;BME280;50971;51.940;21.258;2022-10-31T18:51:10;101120.94;;;12.72;100.00
64503;BME280;50971;51.940;21.258;2022-10-31T19:01:14;101114.02;;;12.65;100.00
64503;BME280;50971;51.940;21.258;2022-10-31T19:11:16;101114.15;;;12.59;100.00
64503;BME280;50971;51.940;21.258;2022-10-31T19:21:17;101110.70;;;12.57;100.00
64503;BME280;50971;51.940;21.258;2022-10-31T19:31:25;101107.29;;;12.52;100.00
64503;BME280;50971;51.940;21.258;2022-10-31T19:41:28;101103.86;;;12.54;100.00
64503;BME280;50971;51.940;21.258;2022-10-31T19:51:30;101109.27;;;12.53;100.00
64503;BME280;50971;51.940;21.258;2022-10-31T20:01:31;101103.38;;;12.53;100.00
64503;BME280;50971;51.940;21.258;2022-10-31T20:11:35;101096.96;;;12.53;100.00
64503;BME280;50971;51.940;21.258;2022-10-31T20:21:38;101090.98;;;12.43;100.00
64503;BME280;50971;51.940;21.258;2022-10-31T20:31:40;101096.46;;;12.36;100.00
64503;BME280;50971;51.940;21.258;2022-10-31T20:41:41;101090.53;;;12.29;100.00
64503;BME280;50971;51.940;21.258;2022-10-31T20:51:42;101081.98;;;12.28;100.00
64503;BME280;50971;51.940;21.258;2022-10-31T21:01:44;101080.11;;;12.22;100.00
64503;BME280;50971;51.940;21.258;2022-10-31T21:11:46;101080.06;;;12.22;100.00
64503;BME280;50971;51.940;21.258;2022-10-31T21:21:47;101076.81;;;12.17;100.00
64503;BME280;50971;51.940;21.258;2022-10-31T21:31:48;101075.69;;;12.13;100.00
64503;BME280;50971;51.940;21.258;2022-10-31T21:41:52;101068.70;;;12.17;100.00
64503;BME280;50971;51.940;21.258;2022-10-31T21:51:53;101063.05;;;12.24;100.00
64503;BME280;50971;51.940;21.258;2022-10-31T22:01:55;101059.48;;;12.17;100.00
64503;BME280;50971;51.940;21.258;2022-10-31T22:11:59;101053.48;;;12.09;100.00
64503;BME280;50971;51.940;21.258;2022-10-31T22:22:06;101046.71;;;12.10;100.00
64503;BME280;50971;51.940;21.258;2022-10-31T22:32:13;101041.92;;;12.13;100.00
64503;BME280;50971;51.940;21.258;2022-10-31T22:42:29;101039.63;;;12.21;100.00
64503;BME280;50971;51.940;21.258;2022-10-31T22:52:39;101042.37;;;12.27;100.00
64503;BME280;50971;51.940;21.258;2022-10-31T23:03:19;101041.59;;;12.21;100.00
64503;BME280;50971;51.940;21.258;2022-10-31T23:13:41;101030.04;;;12.23;100.00
64503;BME280;50971;51.940;21.258;2022-10-31T23:24:54;101025.96;;;12.30;100.00
64503;BME280;50971;51.940;21.258;2022-10-31T23:35:28;101023.49;;;12.23;100.00
64503;BME280;50971;51.940;21.258;2022-10-31T23:46:02;101022.42;;;12.06;100.00
64503;BME280;50971;51.940;21.258;2022-10-31T23:56:03;101021.39;;;12.00;100.00
